Terminal Aerodrome Forecast
Issued by NWS Billings, MT

Home | Current Version | Previous Version | Text Only | Print | Product List | Glossary Off
Versions: 1 2 3 4 5 6 7 8 9 10 11 12 13 14 15 16 17 18 19 20 21 22 23 24 25 26 27 28 29 30 31

000
FTUS45 KBYZ 060529
TAFMLS
TAF
KMLS 060529Z 0606/0706 14013KT P6SM FEW080 BKN150 WS015/16035KT
     FM060800 16010KT P6SM BKN100
     FM061100 34011KT P6SM VCSH BKN070
     FM061400 33016G25KT P6SM -SHRA SCT025 BKN035
     FM070200 35011KT P6SM OVC050=

USA.gov is the U.S. government's official web portal to all federal, state and local government web resources and services.